Terminal Aerodrome Forecast
Issued by NWS Bismarck, ND

Home | Current Version | Previous Version | Text Only | Print | Product List | Glossary Off
Versions: 1 2 3 4 5 6 7 8 9 10 11 12 13 14 15 16

000
FTUS43 KBIS 181019 AAB
TAFBIS
TAF AMD
KBIS 181019Z 1810/1906 32019G26KT P6SM SCT025 SCT250 WS020/30045KT
     FM181300 30015KT P6SM SCT250 WS020/31035KT
     FM181700 30018G25KT P6SM FEW120 SCT250
     FM182300 28011KT P6SM FEW120 FEW250
     FM190200 21004KT P6SM FEW120 FEW250=

USA.gov is the U.S. government's official web portal to all federal, state and local government web resources and services.